UTFN

Namangan Airport

Namangan, Uzbekistan
TAF UTFN 162300Z 1700/1724 VRB02KT 0200 FZFG VV002 TEMPO 1700/1707 33010KT 1000 BR BKN004 FM 170700 6000 NSW TEMPO 1712/1724 05010KT 0200 FZFG VV001
Issued Valid From Valid To
Jan-16 @ 23:00 UTC
(6 hours ago)
Jan-17 @ 00:00 UTC
(5 hours ago)
Jan-18 @ 00:00 UTC
(in 19 hours)
Jan-17 @ 00:00 to Jan-17 @ 07:00
TAF UTFN 162300Z 1700/1724 VRB02KT 0200 FZFG VV002
Wind Visibility Clouds Conditions
Variable at 2 knots 193 meters
  • Vertical visibility at 200' AGL
  • Freezing
  • Fog
Temporary Jan-17 @ 00:00 to Jan-17 @ 07:00
TEMPO 1700/1707 33010KT 1000 BR BKN004 FM 170700 6000 NSW
Wind Visibility Clouds Conditions
330° at 10 knots 998 meters
  • Broken at 400' AGL
  • Mist
From Jan-17 @ 07:00 to Jan-18 @ 00:00
Visibility Conditions
6,003 meters
Temporary Jan-17 @ 12:00 to Jan-18 @ 00:00
TEMPO 1712/1724 05010KT 0200 FZFG VV001
Wind Visibility Clouds Conditions
50° at 10 knots 193 meters
  • Vertical visibility at 100' AGL
  • Freezing
  • Fog
TAF UTFN 162300Z 1700/1724 VRB02KT 0200 FZFG VV002 TEMPO 1700/1707 33010KT 1000 BR BKN004 FM 170700 6000 NSW TEMPO 1712/1724 05010KT 0200 FZFG VV001
Issued Jan-16 @ 23:00 UTC
(6 hours ago)
Valid From Jan-17 @ 00:00 UTC
(5 hours ago)
Valid To Jan-18 @ 00:00 UTC
(in 19 hours)
Jan-17 @ 00:00 - Jan-17 @ 07:00
Wind Visibility
Variable at 2 knots 193 meters
Clouds
  • Vertical visibility at 200' AGL
Conditions
  • Freezing
  • Fog
Temporary Jan-17 @ 00:00 - Jan-17 @ 07:00
Wind Visibility
330° at 10 knots 998 meters
Clouds
  • Broken at 400' AGL
Conditions
  • Mist
From Jan-17 @ 07:00 - Jan-18 @ 00:00
Conditions
Temporary Jan-17 @ 12:00 - Jan-18 @ 00:00
Wind Visibility
50° at 10 knots 193 meters
Clouds
  • Vertical visibility at 100' AGL
Conditions
  • Freezing
  • Fog